createdAt,value
2019-02-10T00:00:03.550Z,1000.12
2019-02-10T00:01:03.565Z,1000.13
2019-02-10T00:02:03.578Z,1000.06
2019-02-10T00:03:03.590Z,1000.04
2019-02-10T00:04:03.611Z,1000.11
2019-02-10T00:05:03.641Z,1000.02
2019-02-10T00:06:03.632Z,1000.02
2019-02-10T00:07:03.633Z,1000.04
2019-02-10T00:08:03.641Z,1000.02
2019-02-10T00:09:03.654Z,999.94
2019-02-10T00:10:04.139Z,999.94
2019-02-10T00:11:03.676Z,999.92
2019-02-10T00:12:03.711Z,999.86
2019-02-10T00:13:04.502Z,999.86
2019-02-10T00:14:03.715Z,999.87
2019-02-10T00:15:03.736Z,999.82
2019-02-10T00:16:03.792Z,999.79
2019-02-10T00:17:03.748Z,999.75
2019-02-10T00:18:03.763Z,999.69
2019-02-10T00:19:03.789Z,999.69
2019-02-10T00:20:03.789Z,999.71
2019-02-10T00:21:03.802Z,999.64
2019-02-10T00:22:03.810Z,999.66
2019-02-10T00:23:03.818Z,999.59
2019-02-10T00:24:04.296Z,999.64
2019-02-10T00:25:03.856Z,999.58
2019-02-10T00:26:03.893Z,999.56
2019-02-10T00:27:04.031Z,999.58
2019-02-10T00:28:03.883Z,999.54
2019-02-10T00:29:03.926Z,999.55
2019-02-10T00:30:03.900Z,999.52
2019-02-10T00:31:03.926Z,999.49
2019-02-10T00:32:03.931Z,999.47
2019-02-10T00:33:03.943Z,999.45
2019-02-10T00:34:03.971Z,999.40
2019-02-10T00:35:04.281Z,999.43
2019-02-10T00:36:03.991Z,999.38
2019-02-10T00:37:03.985Z,999.42
2019-02-10T00:38:04.022Z,999.38
2019-02-10T00:39:04.009Z,999.42
2019-02-10T00:40:04.035Z,999.32
2019-02-10T00:41:04.042Z,999.32
2019-02-10T00:42:04.040Z,999.32
2019-02-10T00:43:04.055Z,999.30
2019-02-10T00:44:04.067Z,999.29
2019-02-10T00:45:04.076Z,999.25
2019-02-10T00:46:04.187Z,999.19
2019-02-10T00:48:04.111Z,999.19
2019-02-10T00:49:04.126Z,999.12
2019-02-10T00:50:04.615Z,999.06
2019-02-10T00:51:04.164Z,999.06
2019-02-10T00:53:04.171Z,999.01
2019-02-10T00:54:04.191Z,998.99
2019-02-10T00:55:04.212Z,999.00
2019-02-10T00:56:04.259Z,999.02
2019-02-10T00:57:04.227Z,998.92
2019-02-10T00:58:04.227Z,998.98
2019-02-10T00:59:04.243Z,998.94
2019-02-10T01:00:04.251Z,998.88
2019-02-10T01:01:04.278Z,998.86
2019-02-10T01:02:04.277Z,998.87
2019-02-10T01:03:04.295Z,998.83
2019-02-10T01:04:04.298Z,998.77
2019-02-10T01:05:04.319Z,998.68
2019-02-10T01:06:04.331Z,998.70
2019-02-10T01:07:04.343Z,998.69
2019-02-10T01:08:04.348Z,998.72
2019-02-10T01:09:04.357Z,998.69
2019-02-10T01:10:04.371Z,998.69
2019-02-10T01:11:04.383Z,998.67
2019-02-10T01:12:04.396Z,998.70
2019-02-10T01:13:04.412Z,998.67
2019-02-10T01:14:04.423Z,998.67
2019-02-10T01:15:04.428Z,998.64
2019-02-10T01:16:04.449Z,998.65
2019-02-10T01:17:04.454Z,998.65
2019-02-10T01:18:04.575Z,998.62
2019-02-10T01:19:04.476Z,998.61
2019-02-10T01:20:04.491Z,998.62
2019-02-10T01:21:04.552Z,998.64
2019-02-10T01:22:04.799Z,998.61
2019-02-10T01:23:04.782Z,998.60
2019-02-10T01:24:04.535Z,998.58
2019-02-10T01:25:04.577Z,998.53
2019-02-10T01:26:04.555Z,998.51
2019-02-10T01:27:04.568Z,998.51
2019-02-10T01:28:04.582Z,998.50
2019-02-10T01:29:04.608Z,998.45
2019-02-10T01:30:04.646Z,998.45
2019-02-10T01:31:04.613Z,998.40
2019-02-10T01:32:04.630Z,998.43
2019-02-10T01:33:04.638Z,998.39
2019-02-10T01:34:04.659Z,998.35
2019-02-10T01:35:04.669Z,998.29
2019-02-10T01:36:04.684Z,998.25
2019-02-10T01:37:04.711Z,998.25
2019-02-10T01:38:04.699Z,998.23
2019-02-10T01:39:04.709Z,998.21
2019-02-10T01:40:04.742Z,998.22
2019-02-10T01:41:04.738Z,998.18
2019-02-10T01:42:04.758Z,998.15
2019-02-10T01:43:04.787Z,998.10
2019-02-10T01:44:04.776Z,998.02
2019-02-10T01:45:04.779Z,998.07
2019-02-10T01:46:04.789Z,998.01
2019-02-10T01:47:04.801Z,997.96
2019-02-10T01:48:04.840Z,997.93
2019-02-10T01:49:04.830Z,997.88
2019-02-10T01:50:04.839Z,997.88
2019-02-10T01:51:04.849Z,997.86
2019-02-10T01:52:05.138Z,997.82
2019-02-10T01:53:04.871Z,997.78
2019-02-10T01:54:04.899Z,997.74
2019-02-10T01:55:04.902Z,997.73
2019-02-10T01:56:04.925Z,997.71
2019-02-10T01:57:04.919Z,997.66
2019-02-10T01:58:04.951Z,997.63
2019-02-10T01:59:04.965Z,997.65
2019-02-10T02:00:04.962Z,997.56
2019-02-10T02:01:04.970Z,997.64
2019-02-10T02:02:04.983Z,997.59
2019-02-10T02:03:05.014Z,997.56
2019-02-10T02:04:05.036Z,997.53
2019-02-10T02:05:05.018Z,997.52
2019-02-10T02:06:05.027Z,997.53
2019-02-10T02:07:05.039Z,997.49
2019-02-10T02:08:05.057Z,997.48
2019-02-10T02:09:05.103Z,997.45
2019-02-10T02:10:05.072Z,997.39
2019-02-10T02:11:05.093Z,997.38
2019-02-10T02:12:05.099Z,997.40
2019-02-10T02:13:05.112Z,997.37
2019-02-10T02:14:05.125Z,997.41
2019-02-10T02:15:05.134Z,997.34
2019-02-10T02:16:05.157Z,997.34
2019-02-10T02:17:05.203Z,997.30
2019-02-10T02:18:05.170Z,997.24
2019-02-10T02:19:05.288Z,997.25
2019-02-10T02:20:05.207Z,997.24
2019-02-10T02:21:05.269Z,997.22
2019-02-10T02:22:05.709Z,997.21
2019-02-10T02:23:05.228Z,997.20
2019-02-10T02:24:05.243Z,997.20
2019-02-10T02:25:05.773Z,997.18
2019-02-10T02:26:05.264Z,997.16
2019-02-10T02:27:05.276Z,997.14
2019-02-10T02:28:05.323Z,997.11
2019-02-10T02:29:05.299Z,997.05
2019-02-10T02:30:05.314Z,997.01
2019-02-10T02:31:05.326Z,997.00
2019-02-10T02:32:05.338Z,997.00
2019-02-10T02:33:05.347Z,996.96
2019-02-10T02:34:05.365Z,996.92
2019-02-10T02:35:05.388Z,996.94
2019-02-10T02:36:05.383Z,996.87
2019-02-10T02:37:08.136Z,996.89
2019-02-10T02:38:05.408Z,996.84
2019-02-10T02:39:05.417Z,996.81
2019-02-10T02:40:05.429Z,996.73
2019-02-10T02:41:05.442Z,996.75
2019-02-10T02:42:05.455Z,996.74
2019-02-10T02:43:05.466Z,996.66
2019-02-10T02:44:05.488Z,996.67
2019-02-10T02:45:05.494Z,996.62
2019-02-10T02:46:05.505Z,996.59
2019-02-10T02:47:05.513Z,996.54
2019-02-10T02:48:05.529Z,996.56
2019-02-10T02:49:05.539Z,996.56
2019-02-10T02:50:05.552Z,996.53
2019-02-10T02:51:05.862Z,996.55
2019-02-10T02:52:05.674Z,996.49
2019-02-10T02:53:05.583Z,996.46
2019-02-10T02:54:06.052Z,996.47
2019-02-10T02:55:05.610Z,996.45
2019-02-10T02:56:05.618Z,996.43
2019-02-10T02:57:05.628Z,996.40
2019-02-10T02:58:05.644Z,996.42
2019-02-10T02:59:05.652Z,996.38
2019-02-10T03:00:05.669Z,996.39
2019-02-10T03:01:05.678Z,996.35
2019-02-10T03:02:05.699Z,996.30
2019-02-10T03:03:05.700Z,996.28
2019-02-10T03:04:05.739Z,996.32
2019-02-10T03:05:05.726Z,996.24
2019-02-10T03:06:05.737Z,996.21
2019-02-10T03:07:05.752Z,996.18
2019-02-10T03:08:05.760Z,996.13
2019-02-10T03:09:05.770Z,996.16
2019-02-10T03:10:05.789Z,996.09
2019-02-10T03:11:05.792Z,996.03
2019-02-10T03:12:05.810Z,995.98
2019-02-10T03:13:05.833Z,995.92
2019-02-10T03:14:05.829Z,995.83
2019-02-10T03:15:05.848Z,995.80
2019-02-10T03:16:05.852Z,995.74
2019-02-10T03:17:05.867Z,995.73
2019-02-10T03:18:05.877Z,995.68
2019-02-10T03:19:05.900Z,995.59
2019-02-10T03:20:05.905Z,995.56
2019-02-10T03:21:05.933Z,995.50
2019-02-10T03:22:05.927Z,995.46
2019-02-10T03:23:05.949Z,995.43
2019-02-10T03:24:05.944Z,995.46
2019-02-10T03:25:06.042Z,995.44
2019-02-10T03:26:05.971Z,995.44
2019-02-10T03:27:06.112Z,995.42
2019-02-10T03:28:06.028Z,995.43
2019-02-10T03:29:06.049Z,995.41
2019-02-10T03:30:06.034Z,995.44
2019-02-10T03:31:06.034Z,995.37
2019-02-10T03:32:06.041Z,995.34
2019-02-10T03:33:06.052Z,995.30
2019-02-10T03:34:06.067Z,995.29
2019-02-10T03:35:06.079Z,995.27
2019-02-10T03:36:06.088Z,995.22
2019-02-10T03:37:06.110Z,995.23
2019-02-10T03:38:06.111Z,995.24
2019-02-10T03:39:06.125Z,995.17
2019-02-10T03:40:06.137Z,995.18
2019-02-10T03:41:06.148Z,995.15
2019-02-10T03:42:06.161Z,995.08
2019-02-10T03:43:06.171Z,995.06
2019-02-10T03:44:06.184Z,995.07
2019-02-10T03:45:06.261Z,995.00
2019-02-10T03:46:06.204Z,995.02
2019-02-10T03:47:06.218Z,995.00
2019-02-10T03:48:06.227Z,994.95
2019-02-10T03:49:06.247Z,994.90
2019-02-10T03:50:06.256Z,994.90
2019-02-10T03:51:06.946Z,994.91
2019-02-10T03:52:06.286Z,994.84
2019-02-10T03:53:06.287Z,994.77
2019-02-10T03:54:06.348Z,994.79
2019-02-10T03:55:06.309Z,994.77
2019-02-10T03:56:06.470Z,994.71
2019-02-10T03:57:06.338Z,994.68
2019-02-10T03:58:06.346Z,994.68
2019-02-10T04:00:06.367Z,994.57
2019-02-10T04:01:06.443Z,994.54
2019-02-10T04:02:06.392Z,994.53
2019-02-10T04:03:06.406Z,994.48
2019-02-10T04:04:06.413Z,994.42
2019-02-10T04:05:06.429Z,994.42
2019-02-10T04:06:06.435Z,994.39
2019-02-10T04:07:06.449Z,994.41
2019-02-10T04:08:06.465Z,994.29
2019-02-10T04:09:06.473Z,994.19
2019-02-10T04:10:06.484Z,994.27
2019-02-10T04:11:06.501Z,994.26
2019-02-10T04:12:06.509Z,994.17
2019-02-10T04:13:06.520Z,994.16
2019-02-10T04:14:06.532Z,994.15
2019-02-10T04:15:06.545Z,994.04
2019-02-10T04:16:06.555Z,994.07
2019-02-10T04:17:06.567Z,994.02
2019-02-10T04:18:06.577Z,993.98
2019-02-10T04:19:06.587Z,993.91
2019-02-10T04:20:06.612Z,993.93
2019-02-10T04:21:06.913Z,993.89
2019-02-10T04:22:06.622Z,993.88
2019-02-10T04:23:06.656Z,993.89
2019-02-10T04:24:06.650Z,993.83
2019-02-10T04:25:06.657Z,993.79
2019-02-10T04:26:06.666Z,993.84
2019-02-10T04:27:06.677Z,993.85
2019-02-10T04:28:06.692Z,993.77
2019-02-10T04:29:06.698Z,993.74
2019-02-10T04:30:06.712Z,993.68
2019-02-10T04:31:07.180Z,993.64
2019-02-10T04:32:06.740Z,993.61
2019-02-10T04:33:06.778Z,993.53
2019-02-10T04:34:06.780Z,993.52
2019-02-10T04:35:06.774Z,993.50
2019-02-10T04:36:06.785Z,993.43
2019-02-10T04:37:06.796Z,993.40
2019-02-10T04:38:06.802Z,993.35
2019-02-10T04:39:06.815Z,993.37
2019-02-10T04:40:06.842Z,993.34
2019-02-10T04:41:06.835Z,993.33
2019-02-10T04:42:06.847Z,993.30
2019-02-10T04:43:06.862Z,993.23
2019-02-10T04:44:06.894Z,993.18
2019-02-10T04:45:06.884Z,993.19
2019-02-10T04:46:06.893Z,993.14
2019-02-10T04:47:06.934Z,993.13
2019-02-10T04:48:06.915Z,993.11
2019-02-10T04:49:06.926Z,993.07
2019-02-10T04:50:06.947Z,993.05
2019-02-10T04:51:07.393Z,992.98
2019-02-10T04:52:06.967Z,992.93
2019-02-10T04:53:09.929Z,992.91
2019-02-10T04:54:06.984Z,992.88
2019-02-10T04:55:07.056Z,992.83
2019-02-10T04:56:07.778Z,992.79
2019-02-10T04:57:09.888Z,992.74
2019-02-10T04:58:07.874Z,992.71
2019-02-10T04:59:10.336Z,992.65
2019-02-10T05:00:07.969Z,992.60
2019-02-10T05:01:08.137Z,992.58
2019-02-10T05:02:10.042Z,992.55
2019-02-10T05:03:07.091Z,992.54
2019-02-10T05:04:07.112Z,992.48
2019-02-10T05:05:07.109Z,992.40
2019-02-10T05:06:07.126Z,992.42
2019-02-10T05:07:07.154Z,992.34
2019-02-10T05:08:07.145Z,992.31
2019-02-10T05:09:07.154Z,992.23
2019-02-10T05:10:07.165Z,992.21
2019-02-10T05:11:07.197Z,992.15
2019-02-10T05:12:07.192Z,992.13
2019-02-10T05:13:07.205Z,992.08
2019-02-10T05:14:07.215Z,991.99
2019-02-10T05:15:07.225Z,991.94
2019-02-10T05:16:07.245Z,991.93
2019-02-10T05:17:07.248Z,991.91
2019-02-10T05:18:07.259Z,991.86
2019-02-10T05:19:07.267Z,991.87
2019-02-10T05:20:07.282Z,991.82
2019-02-10T05:21:07.297Z,991.73
2019-02-10T05:22:07.303Z,991.69
2019-02-10T05:23:07.318Z,991.66
2019-02-10T05:24:07.364Z,991.62
2019-02-10T05:25:07.337Z,991.54
2019-02-10T05:26:07.348Z,991.52
2019-02-10T05:27:07.366Z,991.49
2019-02-10T05:28:07.371Z,991.47
2019-02-10T05:29:07.389Z,991.38
2019-02-10T05:31:07.715Z,991.33
2019-02-10T05:32:07.454Z,991.27
2019-02-10T05:33:07.427Z,991.24
2019-02-10T05:34:07.540Z,991.20
2019-02-10T05:35:07.502Z,991.13
2019-02-10T05:36:07.569Z,991.07
2019-02-10T05:37:07.472Z,991.01
2019-02-10T05:38:07.484Z,991.04
2019-02-10T05:39:07.503Z,990.96
2019-02-10T05:40:07.517Z,990.89
2019-02-10T05:41:07.541Z,990.80
2019-02-10T05:42:07.535Z,990.73
2019-02-10T05:43:07.530Z,990.71
2019-02-10T05:44:07.544Z,990.72
2019-02-10T05:45:07.622Z,990.65
2019-02-10T05:46:07.578Z,990.63
2019-02-10T05:47:07.576Z,990.59
2019-02-10T05:48:07.587Z,990.54
2019-02-10T05:49:07.598Z,990.46
2019-02-10T05:50:07.622Z,990.39
2019-02-10T05:51:07.646Z,990.29
2019-02-10T05:52:07.632Z,990.31
2019-02-10T05:53:07.662Z,990.28
2019-02-10T05:54:07.655Z,990.28
2019-02-10T05:55:07.667Z,990.18
2019-02-10T05:56:07.676Z,990.21
2019-02-10T05:57:07.689Z,990.14
2019-02-10T05:58:07.709Z,990.08
2019-02-10T05:59:08.139Z,990.01
2019-02-10T06:00:07.724Z,990.01
2019-02-10T06:01:07.732Z,989.99
2019-02-10T06:02:07.755Z,989.91
2019-02-10T06:03:07.908Z,989.86
2019-02-10T06:04:07.768Z,989.85
2019-02-10T06:05:07.783Z,989.72
2019-02-10T06:06:07.855Z,989.75
2019-02-10T06:08:13.510Z,989.67
2019-02-10T06:09:07.822Z,989.53
2019-02-10T06:10:07.831Z,989.55
2019-02-10T06:11:07.842Z,989.47
2019-02-10T06:12:07.855Z,989.52
2019-02-10T06:13:07.871Z,989.49
2019-02-10T06:14:07.880Z,989.39
2019-02-10T06:15:07.885Z,989.33
2019-02-10T06:16:07.901Z,989.26
2019-02-10T06:17:07.911Z,989.28
2019-02-10T06:18:07.925Z,989.30
2019-02-10T06:19:07.949Z,989.29
2019-02-10T06:20:08.244Z,989.26
2019-02-10T06:21:07.962Z,989.18
2019-02-10T06:22:07.968Z,989.10
2019-02-10T06:23:07.977Z,989.02
2019-02-10T06:24:07.988Z,988.95
2019-02-10T06:25:08.006Z,988.91
2019-02-10T06:26:08.014Z,988.82
2019-02-10T06:27:08.020Z,988.77
2019-02-10T06:28:08.039Z,988.80
2019-02-10T06:29:08.043Z,988.76
2019-02-10T06:30:08.056Z,988.62
2019-02-10T06:31:08.064Z,988.58
2019-02-10T06:32:08.084Z,988.64
2019-02-10T06:34:08.100Z,988.45
2019-02-10T06:35:08.114Z,988.54
2019-02-10T06:36:08.122Z,988.67
2019-02-10T06:37:08.129Z,988.84
2019-02-10T06:38:08.313Z,988.86
2019-02-10T06:39:08.166Z,988.88
2019-02-10T06:40:08.164Z,988.81
2019-02-10T06:41:08.224Z,988.82
2019-02-10T06:42:08.194Z,988.75
2019-02-10T06:43:08.208Z,988.62
2019-02-10T06:44:08.212Z,988.71
2019-02-10T06:45:08.230Z,988.51
2019-02-10T06:46:08.237Z,988.52
2019-02-10T06:47:08.263Z,988.52
2019-02-10T06:48:08.251Z,988.45
2019-02-10T06:49:08.263Z,988.51
2019-02-10T06:50:08.271Z,988.50
2019-02-10T06:51:08.286Z,988.49
2019-02-10T06:52:08.295Z,988.46
2019-02-10T06:53:08.304Z,988.34
2019-02-10T06:54:08.316Z,988.40
2019-02-10T06:55:08.343Z,988.40
2019-02-10T06:56:08.338Z,988.28
2019-02-10T06:57:08.384Z,988.28
2019-02-10T06:58:08.365Z,988.33
2019-02-10T06:59:08.372Z,988.29
2019-02-10T07:00:08.383Z,988.25
2019-02-10T07:01:08.397Z,988.24
2019-02-10T07:02:08.411Z,988.30
2019-02-10T07:03:08.424Z,988.32
2019-02-10T07:04:08.437Z,988.27
2019-02-10T07:05:08.449Z,988.21
2019-02-10T07:06:08.447Z,988.16
2019-02-10T07:07:08.460Z,988.13
2019-02-10T07:08:08.481Z,988.08
2019-02-10T07:09:08.533Z,988.03
2019-02-10T07:10:08.846Z,987.96
2019-02-10T07:11:08.509Z,987.84
2019-02-10T07:12:08.533Z,987.80
2019-02-10T07:13:08.566Z,987.93
2019-02-10T07:14:08.536Z,987.93
2019-02-10T07:15:08.563Z,987.80
2019-02-10T07:16:08.561Z,987.78
2019-02-10T07:17:08.572Z,987.79
2019-02-10T07:18:08.583Z,987.73
2019-02-10T07:19:08.596Z,987.65
2019-02-10T07:20:08.608Z,987.66
2019-02-10T07:21:08.626Z,987.67
2019-02-10T07:22:08.631Z,987.58
2019-02-10T07:23:08.645Z,987.56
2019-02-10T07:24:08.651Z,987.52
2019-02-10T07:25:08.674Z,987.50
2019-02-10T07:26:08.675Z,987.43
2019-02-10T07:27:08.701Z,987.42
2019-02-10T07:28:08.697Z,987.42
2019-02-10T07:29:08.711Z,987.36
2019-02-10T07:30:08.720Z,987.29
2019-02-10T07:31:08.732Z,987.33
2019-02-10T07:32:08.749Z,987.39
2019-02-10T07:33:08.767Z,987.33
2019-02-10T07:34:08.770Z,987.27
2019-02-10T07:35:08.786Z,987.29
2019-02-10T07:36:08.789Z,987.25
2019-02-10T07:37:08.812Z,987.16
2019-02-10T07:39:08.831Z,987.10
2019-02-10T07:40:08.891Z,986.97
2019-02-10T07:41:09.263Z,986.93
2019-02-10T07:42:08.913Z,986.82
2019-02-10T07:43:08.880Z,986.84
2019-02-10T07:44:08.883Z,986.78
2019-02-10T07:45:08.893Z,986.75
2019-02-10T07:46:08.904Z,986.73
2019-02-10T07:47:08.968Z,986.65
2019-02-10T07:48:08.940Z,986.63
2019-02-10T07:49:08.939Z,986.66
2019-02-10T07:50:08.956Z,986.61
2019-02-10T07:51:08.962Z,986.61
2019-02-10T07:52:09.008Z,986.51
2019-02-10T07:53:08.983Z,986.48
2019-02-10T07:54:09.004Z,986.42
2019-02-10T07:55:09.008Z,986.35
2019-02-10T07:56:09.020Z,986.30
2019-02-10T07:57:09.043Z,986.23
2019-02-10T07:58:09.048Z,986.24
2019-02-10T07:59:09.063Z,986.19
2019-02-10T08:00:09.070Z,986.13
2019-02-10T08:01:09.085Z,986.08
2019-02-10T08:02:09.094Z,986.10
2019-02-10T08:03:09.112Z,986.03
2019-02-10T08:04:09.115Z,985.99
2019-02-10T08:05:09.129Z,985.88
2019-02-10T08:06:09.140Z,985.83
2019-02-10T08:07:09.308Z,985.80
2019-02-10T08:08:09.169Z,985.85
2019-02-10T08:09:09.169Z,985.90
2019-02-10T08:10:09.196Z,985.92
2019-02-10T08:11:09.250Z,985.83
2019-02-10T08:12:09.212Z,985.92
2019-02-10T08:13:09.260Z,985.89
2019-02-10T08:14:09.236Z,985.85
2019-02-10T08:15:09.252Z,985.86
2019-02-10T08:16:09.254Z,985.76
2019-02-10T08:17:09.273Z,985.82
2019-02-10T08:18:09.278Z,985.78
2019-02-10T08:19:09.313Z,985.76
2019-02-10T08:20:09.305Z,985.68
2019-02-10T08:21:09.309Z,985.72
2019-02-10T08:22:09.332Z,985.71
2019-02-10T08:23:09.342Z,985.71
2019-02-10T08:24:09.348Z,985.67
2019-02-10T08:25:09.369Z,985.61
2019-02-10T08:26:09.384Z,985.51
2019-02-10T08:27:09.395Z,985.53
2019-02-10T08:28:09.392Z,985.53
2019-02-10T08:29:09.403Z,985.49
2019-02-10T08:30:09.418Z,985.48
2019-02-10T08:31:09.431Z,985.54
2019-02-10T08:32:09.438Z,985.50
2019-02-10T08:33:09.456Z,985.49
2019-02-10T08:34:09.464Z,985.40
2019-02-10T08:35:09.477Z,985.40
2019-02-10T08:36:09.490Z,985.39
2019-02-10T08:37:09.603Z,985.45
2019-02-10T08:38:09.519Z,985.32
2019-02-10T08:39:09.525Z,985.33
2019-02-10T08:40:09.535Z,985.27
2019-02-10T08:41:09.544Z,985.28
2019-02-10T08:42:09.561Z,985.19
2019-02-10T08:43:09.576Z,985.14
2019-02-10T08:44:09.580Z,985.14
2019-02-10T08:45:09.600Z,985.05
2019-02-10T08:46:09.611Z,985.01
2019-02-10T08:47:09.656Z,985.08
2019-02-10T08:48:09.640Z,985.11
2019-02-10T08:49:09.641Z,985.17
2019-02-10T08:50:09.651Z,985.16
2019-02-10T08:51:09.698Z,985.11
2019-02-10T08:52:09.692Z,985.12
2019-02-10T08:53:09.687Z,984.94
2019-02-10T08:54:09.702Z,984.95
2019-02-10T08:55:09.709Z,984.91
2019-02-10T08:56:09.721Z,984.89
2019-02-10T08:57:09.744Z,984.82
2019-02-10T08:58:09.749Z,984.77
2019-02-10T08:59:09.759Z,984.75
2019-02-10T09:00:09.771Z,984.75
2019-02-10T09:01:09.788Z,984.70
2019-02-10T09:02:09.796Z,984.75
2019-02-10T09:03:10.863Z,984.64
2019-02-10T09:04:09.820Z,984.63
2019-02-10T09:05:09.827Z,984.61
2019-02-10T09:06:09.838Z,984.63
2019-02-10T09:07:09.868Z,984.60
2019-02-10T09:08:09.866Z,984.61
2019-02-10T09:09:09.875Z,984.54
2019-02-10T09:10:09.900Z,984.56
2019-02-10T09:12:09.932Z,984.56
2019-02-10T09:13:09.930Z,984.46
2019-02-10T09:14:10.279Z,984.52
2019-02-10T09:15:09.945Z,984.51
2019-02-10T09:16:09.964Z,984.52
2019-02-10T09:17:09.978Z,984.49
2019-02-10T09:18:10.003Z,984.51
2019-02-10T09:19:10.004Z,984.41
2019-02-10T09:20:10.010Z,984.44
2019-02-10T09:21:10.024Z,984.39
2019-02-10T09:22:10.040Z,984.41
2019-02-10T09:23:10.043Z,984.39
2019-02-10T09:24:10.092Z,984.27
2019-02-10T09:25:10.073Z,984.42
2019-02-10T09:26:10.081Z,984.33
2019-02-10T09:27:10.088Z,984.30
2019-02-10T09:28:10.102Z,984.28
2019-02-10T09:29:10.114Z,984.26
2019-02-10T09:30:10.132Z,984.21
2019-02-10T09:31:10.143Z,984.18
2019-02-10T09:32:10.162Z,984.18
2019-02-10T09:33:10.169Z,984.17
2019-02-10T09:34:10.175Z,984.10
2019-02-10T09:35:10.183Z,984.17
2019-02-10T09:36:10.202Z,984.14
2019-02-10T09:37:10.215Z,984.17
2019-02-10T09:38:10.230Z,984.15
2019-02-10T09:39:11.135Z,984.18
2019-02-10T09:40:10.248Z,984.21
2019-02-10T09:41:10.279Z,984.09
2019-02-10T09:42:10.273Z,984.16
2019-02-10T09:43:10.283Z,984.12
2019-02-10T09:44:10.303Z,984.12
2019-02-10T09:45:10.308Z,984.08
2019-02-10T09:46:10.317Z,984.11
2019-02-10T09:47:10.328Z,984.03
2019-02-10T09:48:10.361Z,984.07
2019-02-10T09:49:10.367Z,984.05
2019-02-10T09:50:11.277Z,984.03
2019-02-10T09:51:10.380Z,984.09
2019-02-10T09:52:10.392Z,984.04
2019-02-10T09:53:10.408Z,984.05
2019-02-10T09:54:10.418Z,984.04
2019-02-10T09:55:10.437Z,983.95
2019-02-10T09:56:10.749Z,983.94
2019-02-10T09:57:10.473Z,983.96
2019-02-10T09:58:10.514Z,983.94
2019-02-10T09:59:10.474Z,983.91
2019-02-10T10:00:10.490Z,983.95
2019-02-10T10:01:10.500Z,983.94
2019-02-10T10:02:10.533Z,983.99
2019-02-10T10:03:10.529Z,983.99
2019-02-10T10:04:10.541Z,983.98
2019-02-10T10:05:10.559Z,983.94
2019-02-10T10:06:10.636Z,983.94
2019-02-10T10:07:10.591Z,983.94
2019-02-10T10:08:10.590Z,983.92
2019-02-10T10:09:18.743Z,983.90
2019-02-10T10:10:10.613Z,983.94
2019-02-10T10:11:10.631Z,983.85
2019-02-10T10:12:10.678Z,983.82
2019-02-10T10:13:10.652Z,983.92
2019-02-10T10:14:10.992Z,983.88
2019-02-10T10:15:10.673Z,983.81
2019-02-10T10:16:10.708Z,983.84
2019-02-10T10:17:10.708Z,983.84
2019-02-10T10:18:10.707Z,983.86
2019-02-10T10:19:10.721Z,983.83
2019-02-10T10:20:11.083Z,983.78
2019-02-10T10:21:10.755Z,983.79
2019-02-10T10:22:10.770Z,983.77
2019-02-10T10:23:10.769Z,983.79
2019-02-10T10:24:10.840Z,983.74
2019-02-10T10:25:10.934Z,983.70
2019-02-10T10:26:11.247Z,983.68
2019-02-10T10:27:10.880Z,983.82
2019-02-10T10:28:10.851Z,983.76
2019-02-10T10:29:10.858Z,983.71
2019-02-10T10:30:10.858Z,983.77
2019-02-10T10:31:10.869Z,983.73
2019-02-10T10:32:10.883Z,983.61
2019-02-10T10:33:10.896Z,983.62
2019-02-10T10:34:10.922Z,983.60
2019-02-10T10:35:10.921Z,983.56
2019-02-10T10:36:10.951Z,983.52
2019-02-10T10:37:10.967Z,983.52
2019-02-10T10:38:10.953Z,983.48
2019-02-10T10:39:11.017Z,983.44
2019-02-10T10:40:10.981Z,983.47
2019-02-10T10:41:11.001Z,983.45
2019-02-10T10:42:11.006Z,983.40
2019-02-10T10:43:11.142Z,983.40
2019-02-10T10:44:11.062Z,983.43
2019-02-10T10:45:11.050Z,983.41
2019-02-10T10:46:11.066Z,983.34
2019-02-10T10:47:11.073Z,983.33
2019-02-10T10:48:11.087Z,983.38
2019-02-10T10:49:11.096Z,983.32
2019-02-10T10:50:11.108Z,983.29
2019-02-10T10:51:11.120Z,983.30
2019-02-10T10:52:11.133Z,983.34
2019-02-10T10:53:11.142Z,983.37
2019-02-10T10:54:11.157Z,983.32
2019-02-10T10:55:11.163Z,983.34
2019-02-10T10:56:11.322Z,983.36
2019-02-10T10:57:11.190Z,983.39
2019-02-10T10:58:11.211Z,983.42
2019-02-10T10:59:11.223Z,983.44
2019-02-10T11:00:11.231Z,983.37
2019-02-10T11:01:11.240Z,983.40
2019-02-10T11:02:11.255Z,983.34
2019-02-10T11:03:11.279Z,983.29
2019-02-10T11:04:11.279Z,983.37
2019-02-10T11:05:11.292Z,983.36
2019-02-10T11:06:11.306Z,983.38
2019-02-10T11:07:11.314Z,983.31
2019-02-10T11:08:11.332Z,983.41
2019-02-10T11:09:11.345Z,983.27
2019-02-10T11:10:11.357Z,983.24
2019-02-10T11:11:11.361Z,983.18
2019-02-10T11:12:11.378Z,983.22
2019-02-10T11:13:11.392Z,983.18
2019-02-10T11:14:11.404Z,983.12
2019-02-10T11:15:11.415Z,983.11
2019-02-10T11:16:11.469Z,983.10
2019-02-10T11:17:11.435Z,983.10
2019-02-10T11:18:11.448Z,983.11
2019-02-10T11:19:11.472Z,983.14
2019-02-10T11:20:11.488Z,983.11
2019-02-10T11:21:11.491Z,983.05
2019-02-10T11:22:11.504Z,983.01
2019-02-10T11:23:11.510Z,983.01
2019-02-10T11:24:11.585Z,983.04
2019-02-10T11:25:11.544Z,983.01
2019-02-10T11:26:12.050Z,982.98
2019-02-10T11:27:11.563Z,983.01
2019-02-10T11:28:11.574Z,982.99
2019-02-10T11:29:11.584Z,983.01
2019-02-10T11:30:11.604Z,983.06
2019-02-10T11:31:11.609Z,982.96
2019-02-10T11:32:11.627Z,982.93
2019-02-10T11:33:11.743Z,982.94
2019-02-10T11:34:11.657Z,982.92
2019-02-10T11:35:11.676Z,982.89
2019-02-10T11:36:11.746Z,982.84
2019-02-10T11:37:11.686Z,982.81
2019-02-10T11:38:11.712Z,982.82
2019-02-10T11:39:11.726Z,982.77
2019-02-10T11:40:11.778Z,982.86
2019-02-10T11:41:11.734Z,982.84
2019-02-10T11:42:11.747Z,982.84
2019-02-10T11:43:11.768Z,982.75
2019-02-10T11:44:11.922Z,982.81
2019-02-10T11:45:12.417Z,982.76
2019-02-10T11:46:11.904Z,982.73
2019-02-10T11:47:11.816Z,982.75
2019-02-10T11:48:11.882Z,982.78
2019-02-10T11:49:11.880Z,982.66
2019-02-10T11:51:11.866Z,982.68
2019-02-10T11:52:11.877Z,982.68
2019-02-10T11:53:11.966Z,982.65
2019-02-10T11:54:11.897Z,982.63
2019-02-10T11:55:11.909Z,982.66
2019-02-10T11:56:11.923Z,982.62
2019-02-10T11:57:11.937Z,982.58
2019-02-10T11:58:11.948Z,982.59
2019-02-10T11:59:11.957Z,982.60
2019-02-10T12:00:12.338Z,982.68
2019-02-10T12:01:12.035Z,982.55
2019-02-10T12:02:11.998Z,982.57
2019-02-10T12:03:12.016Z,982.61
2019-02-10T12:04:12.017Z,982.54
2019-02-10T12:05:12.036Z,982.57
2019-02-10T12:06:12.044Z,982.58
2019-02-10T12:07:12.058Z,982.54
2019-02-10T12:08:12.069Z,982.60
2019-02-10T12:09:12.080Z,982.62
2019-02-10T12:10:12.107Z,982.57
2019-02-10T12:11:12.106Z,982.58
2019-02-10T12:12:12.118Z,982.54
2019-02-10T12:13:12.133Z,982.58
2019-02-10T12:14:12.150Z,982.57
2019-02-10T12:15:12.159Z,982.51
2019-02-10T12:16:12.168Z,982.53
2019-02-10T12:17:12.194Z,982.57
2019-02-10T12:18:12.195Z,982.54
2019-02-10T12:19:12.225Z,982.57
2019-02-10T12:20:12.562Z,982.60
2019-02-10T12:21:12.265Z,982.64
2019-02-10T12:22:12.253Z,982.62
2019-02-10T12:23:12.337Z,982.55
2019-02-10T12:24:12.293Z,982.51
2019-02-10T12:25:12.300Z,982.49
2019-02-10T12:26:12.295Z,982.51
2019-02-10T12:27:12.305Z,982.50
2019-02-10T12:28:12.319Z,982.51
2019-02-10T12:29:12.337Z,982.52
2019-02-10T12:30:12.402Z,982.52
2019-02-10T12:31:12.358Z,982.55
2019-02-10T12:32:12.379Z,982.45
2019-02-10T12:33:12.825Z,982.58
2019-02-10T12:34:12.393Z,982.51
2019-02-10T12:35:12.427Z,982.53
2019-02-10T12:36:12.430Z,982.54
2019-02-10T12:37:12.432Z,982.60